< < Back
Terminal Aerodrome Forecast


Current Version              Previous Versions:   1  2  3  4  5  6  7  8  9  

Terminal Aerodrome Forecast

281
FTUS44 KMOB 291700
TAFMOB
TAF
KMOB 291734Z 2918/3018 19012G15KT P6SM FEW030 FEW150 SCT250
     FM300300 21005KT P6SM FEW025 BKN250
     FM300900 33011KT P6SM FEW050 OVC250
     FM301500 01015G20KT P6SM FEW250=



Latest METAR

038
SAUS80 KWBC 302000 CCA
MTRMOB
METAR KMOB 301956Z 01012KT 10SM FEW060 BKN200 14/M02 A3030 RMK AO2
SLP258 T01441017


USA.gov is the U.S. government's official web portal to all federal, state and local government web resources and services.